aviador You're here:

WBKS Decoded Metar

SANDAKAN/KALIMAN in _UNIDENTIFIED
Report Time2017-06-25 20:00:00
UTC Time2017-06-25 20:40:19
Flight Rules vfr VFR
Wind250° at 04 kt
W.Decomp.*RWY 26: 3.9 kt HW 0.7 kt LCW
W.Rank250° ranks 4
Current wind is above 250° avg. (3.4)
Visibility9999 m
Phenomena:N/A
Clouds:Few 016 Hf
Broken 290 Hf
Expected CloudBase > 400 ft AGL from Temp-Dew spread
Ceiling29,000 ft
Temp24°C (ISA +9)
Dew Point23°C (94% RH)
QNH1009 hPa
Density Alt1,601 ft
Elevation43 ft
Report Wrong Elevation
Raw Report
METAR WBKS 252000Z 25004KT 9999 FEW016 BKN290 24/23 Q1009=

Extra information for WBKS:More info

Metar Taf Metar & Taf Last 4 Metars F.Rules Stats Wind Profile Meteogram Temp Stats Airport Information Weather charts Add Link Nearby VenuesMetar ALERT Operation Metar Decoded Social comments